• Join FlightAware (Why Join?)
  • Login
  • US Flag 
05:41AM EDT


 

Airport Tracker/Info


-or-


 

Live Flight TrackerFlight Track Log ✈ LBQ792 ✈ 09-May-2013 ✈ KSYR - KROC

Flight Track Log - Related Links

Times and Time Zones

All times are in EDT time to prevent confusion due to time zone crossing. See the LBQ792 flight status page for this flight to view local times or setup timezone preferences in your user account.

Time Position Orientation Groundspeed Altitude Reporting Facility
EDT Latitude Longitude Course Direction KTS MPH feet Rate Location/Type
10:12PM 43.1297 -76.1589 290° West 138 159 2,600  Level Boston Center
10:13PM 43.1317 -76.2217 272° West 173 199 4,200 1,560 Climbing Boston Center
10:14PM 43.1317 -76.2842 270° West 172 198 5,800 900 Climbing Boston Center
10:15PM 43.1314 -76.3553 270° West 207 238 6,000 60 Climbing Boston Center
10:16PM 43.1306 -76.4436 269° West 245 282 6,000  Level Boston Center
10:17PM 43.1336 -76.5292 273° West 242 278 6,000  Level Boston Center
10:18PM 43.1325 -76.6172 269° West 238 274 6,000  Level Boston Center
10:19PM 43.1339 -76.6656 272° West 239 275 6,000  Level Cleveland Center
10:20PM 43.1325 -76.7536 269° West 236 272 6,000  Level Cleveland Center
10:21PM 43.1272 -76.8453 266° West 236 272 6,000  Level Cleveland Center
10:22PM 43.1261 -76.9361 269° West 235 270 6,000 -300 Level Cleveland Center
10:23PM 43.1203 -77.0247 265° West 238 274 5,500 -720 Descending Cleveland Center
10:24PM 43.1150 -77.1189 266° West 260 299 4,600 -960 Descending Cleveland Center
10:25PM 43.1158 -77.2214 271° West 254 292 3,600 -900 Descending Cleveland Center
10:26PM 43.1189 -77.3264 272° West 251 289 2,700 -600 Descending Cleveland Center
10:27PM 43.1258 -77.4314 275° West 227 261 2,300 -240 Descending Cleveland Center
10:28PM 43.1261 -77.5111 270° West 216 249 2,300 -120 Level Cleveland Center
10:29PM 43.1258 -77.5822 270° West 211 243 2,100 -660 Descending Cleveland Center
10:30PM 43.1250 -77.6392 269° West 110 127 1,100 -1,020 Descending Cleveland Center
10:32PM 43.1167 -77.6667 270° West  Level FlightAware Approximate
10:39PM 43.1191 -77.6719 270° West  Level Estimated